sensor_id;sensor_type;location;lat;lon;timestamp;P1;durP1;ratioP1;P2;durP2;ratioP2
8407;SDS011;4241;48.452;9.216;2023-05-10T00:00:38;451.23;;;152.10;;
8407;SDS011;4241;48.452;9.216;2023-05-10T00:03:05;451.07;;;150.97;;
8407;SDS011;4241;48.452;9.216;2023-05-10T00:05:31;454.57;;;157.93;;
8407;SDS011;4241;48.452;9.216;2023-05-10T00:07:58;449.10;;;150.03;;
8407;SDS011;4241;48.452;9.216;2023-05-10T00:10:25;445.93;;;147.90;;
8407;SDS011;4241;48.452;9.216;2023-05-10T00:12:52;450.23;;;150.87;;
8407;SDS011;4241;48.452;9.216;2023-05-10T00:15:19;449.37;;;149.17;;
8407;SDS011;4241;48.452;9.216;2023-05-10T00:17:47;450.83;;;150.17;;
8407;SDS011;4241;48.452;9.216;2023-05-10T00:20:14;450.07;;;149.87;;
8407;SDS011;4241;48.452;9.216;2023-05-10T00:22:41;450.57;;;150.77;;
8407;SDS011;4241;48.452;9.216;2023-05-10T00:25:08;449.20;;;149.97;;
8407;SDS011;4241;48.452;9.216;2023-05-10T00:27:35;450.77;;;149.67;;
8407;SDS011;4241;48.452;9.216;2023-05-10T00:30:02;448.27;;;148.67;;
8407;SDS011;4241;48.452;9.216;2023-05-10T00:32:29;447.77;;;148.17;;
8407;SDS011;4241;48.452;9.216;2023-05-10T00:34:57;447.73;;;148.07;;
8407;SDS011;4241;48.452;9.216;2023-05-10T00:37:24;447.10;;;148.87;;
8407;SDS011;4241;48.452;9.216;2023-05-10T00:39:51;450.27;;;151.17;;
8407;SDS011;4241;48.452;9.216;2023-05-10T00:42:18;449.00;;;148.37;;
8407;SDS011;4241;48.452;9.216;2023-05-10T00:44:45;452.07;;;150.67;;
8407;SDS011;4241;48.452;9.216;2023-05-10T00:47:12;447.43;;;147.27;;
8407;SDS011;4241;48.452;9.216;2023-05-10T00:49:39;448.20;;;147.83;;
8407;SDS011;4241;48.452;9.216;2023-05-10T00:52:08;445.80;;;146.93;;
8407;SDS011;4241;48.452;9.216;2023-05-10T00:54:35;444.43;;;145.63;;
8407;SDS011;4241;48.452;9.216;2023-05-10T00:57:02;447.33;;;146.73;;
8407;SDS011;4241;48.452;9.216;2023-05-10T00:59:29;446.20;;;145.77;;
8407;SDS011;4241;48.452;9.216;2023-05-10T01:01:56;445.93;;;145.03;;
8407;SDS011;4241;48.452;9.216;2023-05-10T01:04:24;445.30;;;144.57;;
8407;SDS011;4241;48.452;9.216;2023-05-10T01:06:51;444.17;;;143.23;;
8407;SDS011;4241;48.452;9.216;2023-05-10T01:09:20;446.47;;;145.27;;
8407;SDS011;4241;48.452;9.216;2023-05-10T01:11:48;444.90;;;143.77;;
8407;SDS011;4241;48.452;9.216;2023-05-10T01:14:16;442.03;;;140.60;;
8407;SDS011;4241;48.452;9.216;2023-05-10T01:16:45;446.37;;;144.80;;
8407;SDS011;4241;48.452;9.216;2023-05-10T01:19:16;445.37;;;143.50;;
8407;SDS011;4241;48.452;9.216;2023-05-10T01:21:48;444.37;;;142.27;;
8407;SDS011;4241;48.452;9.216;2023-05-10T01:24:38;441.23;;;139.47;;
8407;SDS011;4241;48.452;9.216;2023-05-10T01:27:17;445.57;;;143.47;;
8407;SDS011;4241;48.452;9.216;2023-05-10T01:30:00;447.90;;;145.27;;
8407;SDS011;4241;48.452;9.216;2023-05-10T01:33:02;443.53;;;140.27;;
8407;SDS011;4241;48.452;9.216;2023-05-10T01:35:37;446.87;;;145.30;;
8407;SDS011;4241;48.452;9.216;2023-05-10T01:38:11;440.97;;;140.07;;
8407;SDS011;4241;48.452;9.216;2023-05-10T01:40:57;444.27;;;142.13;;
8407;SDS011;4241;48.452;9.216;2023-05-10T01:43:33;444.63;;;142.90;;
8407;SDS011;4241;48.452;9.216;2023-05-10T01:46:20;447.03;;;145.60;;
8407;SDS011;4241;48.452;9.216;2023-05-10T01:48:55;445.70;;;144.13;;
8407;SDS011;4241;48.452;9.216;2023-05-10T01:51:26;446.07;;;143.43;;
8407;SDS011;4241;48.452;9.216;2023-05-10T01:53:58;444.27;;;143.17;;
8407;SDS011;4241;48.452;9.216;2023-05-10T01:56:29;443.53;;;141.20;;
8407;SDS011;4241;48.452;9.216;2023-05-10T01:58:58;445.37;;;142.63;;
8407;SDS011;4241;48.452;9.216;2023-05-10T02:01:29;443.33;;;141.17;;
8407;SDS011;4241;48.452;9.216;2023-05-10T02:03:58;445.13;;;142.93;;
8407;SDS011;4241;48.452;9.216;2023-05-10T02:06:25;443.37;;;141.53;;
8407;SDS011;4241;48.452;9.216;2023-05-10T02:08:53;444.80;;;143.37;;
8407;SDS011;4241;48.452;9.216;2023-05-10T02:11:21;444.67;;;143.03;;
8407;SDS011;4241;48.452;9.216;2023-05-10T02:13:49;444.17;;;142.47;;
8407;SDS011;4241;48.452;9.216;2023-05-10T02:16:17;444.43;;;142.63;;
8407;SDS011;4241;48.452;9.216;2023-05-10T02:18:49;443.83;;;142.67;;
8407;SDS011;4241;48.452;9.216;2023-05-10T02:21:20;445.37;;;143.77;;
8407;SDS011;4241;48.452;9.216;2023-05-10T02:23:48;445.47;;;143.90;;
8407;SDS011;4241;48.452;9.216;2023-05-10T02:26:18;444.63;;;142.97;;
8407;SDS011;4241;48.452;9.216;2023-05-10T02:28:46;444.37;;;141.97;;
8407;SDS011;4241;48.452;9.216;2023-05-10T02:31:14;445.43;;;143.60;;
8407;SDS011;4241;48.452;9.216;2023-05-10T02:33:42;444.93;;;141.67;;
8407;SDS011;4241;48.452;9.216;2023-05-10T02:36:10;442.67;;;141.50;;
8407;SDS011;4241;48.452;9.216;2023-05-10T02:38:40;445.10;;;143.70;;
8407;SDS011;4241;48.452;9.216;2023-05-10T02:41:09;445.03;;;143.63;;
8407;SDS011;4241;48.452;9.216;2023-05-10T02:43:37;444.40;;;142.77;;
8407;SDS011;4241;48.452;9.216;2023-05-10T02:46:05;445.77;;;142.70;;
8407;SDS011;4241;48.452;9.216;2023-05-10T02:48:33;445.20;;;142.37;;
8407;SDS011;4241;48.452;9.216;2023-05-10T02:51:00;444.63;;;140.90;;
8407;SDS011;4241;48.452;9.216;2023-05-10T02:53:31;445.03;;;143.27;;
8407;SDS011;4241;48.452;9.216;2023-05-10T02:56:01;442.30;;;141.20;;
8407;SDS011;4241;48.452;9.216;2023-05-10T02:58:32;442.57;;;140.90;;
8407;SDS011;4241;48.452;9.216;2023-05-10T03:00:59;446.27;;;144.03;;
8407;SDS011;4241;48.452;9.216;2023-05-10T03:03:26;444.97;;;143.03;;
8407;SDS011;4241;48.452;9.216;2023-05-10T03:05:53;444.33;;;142.53;;
8407;SDS011;4241;48.452;9.216;2023-05-10T03:08:21;443.50;;;141.40;;
8407;SDS011;4241;48.452;9.216;2023-05-10T03:10:50;444.77;;;142.93;;
8407;SDS011;4241;48.452;9.216;2023-05-10T03:13:31;444.63;;;142.27;;
8407;SDS011;4241;48.452;9.216;2023-05-10T03:16:05;444.87;;;142.63;;
8407;SDS011;4241;48.452;9.216;2023-05-10T03:18:37;445.10;;;143.70;;
8407;SDS011;4241;48.452;9.216;2023-05-10T03:21:09;445.43;;;144.07;;
8407;SDS011;4241;48.452;9.216;2023-05-10T03:23:40;443.33;;;142.93;;
8407;SDS011;4241;48.452;9.216;2023-05-10T03:26:09;443.60;;;142.50;;
8407;SDS011;4241;48.452;9.216;2023-05-10T03:28:39;444.93;;;142.50;;
8407;SDS011;4241;48.452;9.216;2023-05-10T03:31:07;445.70;;;143.93;;
8407;SDS011;4241;48.452;9.216;2023-05-10T03:33:35;446.23;;;143.93;;
8407;SDS011;4241;48.452;9.216;2023-05-10T03:36:01;443.73;;;142.23;;
8407;SDS011;4241;48.452;9.216;2023-05-10T03:38:29;443.87;;;141.00;;
8407;SDS011;4241;48.452;9.216;2023-05-10T03:40:55;446.13;;;143.47;;
8407;SDS011;4241;48.452;9.216;2023-05-10T03:43:22;444.90;;;142.97;;
8407;SDS011;4241;48.452;9.216;2023-05-10T03:45:50;446.13;;;143.27;;
8407;SDS011;4241;48.452;9.216;2023-05-10T03:48:17;445.27;;;142.73;;
8407;SDS011;4241;48.452;9.216;2023-05-10T03:50:44;445.17;;;142.63;;
8407;SDS011;4241;48.452;9.216;2023-05-10T03:53:11;449.73;;;145.77;;
8407;SDS011;4241;48.452;9.216;2023-05-10T03:55:38;448.70;;;146.30;;
8407;SDS011;4241;48.452;9.216;2023-05-10T03:58:05;443.43;;;141.57;;
8407;SDS011;4241;48.452;9.216;2023-05-10T04:00:32;443.27;;;141.00;;
8407;SDS011;4241;48.452;9.216;2023-05-10T04:03:01;443.97;;;142.07;;
8407;SDS011;4241;48.452;9.216;2023-05-10T04:05:28;449.60;;;146.70;;
8407;SDS011;4241;48.452;9.216;2023-05-10T04:07:55;444.77;;;141.47;;
8407;SDS011;4241;48.452;9.216;2023-05-10T04:10:22;451.80;;;146.03;;
8407;SDS011;4241;48.452;9.216;2023-05-10T04:12:49;443.23;;;142.30;;
8407;SDS011;4241;48.452;9.216;2023-05-10T04:15:16;445.33;;;142.97;;
8407;SDS011;4241;48.452;9.216;2023-05-10T04:17:43;442.77;;;140.53;;
8407;SDS011;4241;48.452;9.216;2023-05-10T04:20:12;444.30;;;141.67;;
8407;SDS011;4241;48.452;9.216;2023-05-10T04:22:39;446.50;;;143.40;;
8407;SDS011;4241;48.452;9.216;2023-05-10T04:25:06;444.97;;;142.40;;
8407;SDS011;4241;48.452;9.216;2023-05-10T04:27:34;441.47;;;140.10;;
8407;SDS011;4241;48.452;9.216;2023-05-10T04:30:02;444.57;;;142.87;;
8407;SDS011;4241;48.452;9.216;2023-05-10T04:32:29;445.33;;;143.80;;
8407;SDS011;4241;48.452;9.216;2023-05-10T04:34:56;447.47;;;144.43;;
8407;SDS011;4241;48.452;9.216;2023-05-10T04:37:24;445.80;;;143.10;;
8407;SDS011;4241;48.452;9.216;2023-05-10T04:39:51;445.30;;;143.27;;
8407;SDS011;4241;48.452;9.216;2023-05-10T04:42:18;443.83;;;141.37;;
8407;SDS011;4241;48.452;9.216;2023-05-10T04:44:45;444.87;;;142.37;;
8407;SDS011;4241;48.452;9.216;2023-05-10T04:47:12;444.87;;;142.77;;
8407;SDS011;4241;48.452;9.216;2023-05-10T04:49:39;447.50;;;145.13;;
8407;SDS011;4241;48.452;9.216;2023-05-10T04:52:06;445.93;;;143.70;;
8407;SDS011;4241;48.452;9.216;2023-05-10T04:54:35;445.17;;;143.57;;
8407;SDS011;4241;48.452;9.216;2023-05-10T04:57:01;446.47;;;145.13;;
8407;SDS011;4241;48.452;9.216;2023-05-10T04:59:28;448.00;;;144.63;;
8407;SDS011;4241;48.452;9.216;2023-05-10T05:01:55;445.23;;;142.80;;
8407;SDS011;4241;48.452;9.216;2023-05-10T05:04:22;446.07;;;144.10;;
8407;SDS011;4241;48.452;9.216;2023-05-10T05:06:49;448.77;;;146.10;;
8407;SDS011;4241;48.452;9.216;2023-05-10T05:09:16;446.57;;;143.73;;
8407;SDS011;4241;48.452;9.216;2023-05-10T05:11:44;444.50;;;143.17;;
8407;SDS011;4241;48.452;9.216;2023-05-10T05:14:11;444.10;;;141.37;;
8407;SDS011;4241;48.452;9.216;2023-05-10T05:16:38;444.10;;;141.63;;
8407;SDS011;4241;48.452;9.216;2023-05-10T05:19:05;445.17;;;142.43;;
8407;SDS011;4241;48.452;9.216;2023-05-10T05:21:32;444.33;;;142.10;;
8407;SDS011;4241;48.452;9.216;2023-05-10T05:23:59;442.83;;;141.70;;
8407;SDS011;4241;48.452;9.216;2023-05-10T05:26:26;445.33;;;143.10;;
8407;SDS011;4241;48.452;9.216;2023-05-10T05:28:54;444.63;;;144.27;;
8407;SDS011;4241;48.452;9.216;2023-05-10T05:31:21;446.10;;;145.70;;
8407;SDS011;4241;48.452;9.216;2023-05-10T05:33:48;446.30;;;144.80;;
8407;SDS011;4241;48.452;9.216;2023-05-10T05:36:15;446.33;;;144.10;;
8407;SDS011;4241;48.452;9.216;2023-05-10T05:38:42;446.20;;;143.93;;
8407;SDS011;4241;48.452;9.216;2023-05-10T05:41:10;446.50;;;145.20;;
8407;SDS011;4241;48.452;9.216;2023-05-10T05:43:37;446.47;;;145.23;;
8407;SDS011;4241;48.452;9.216;2023-05-10T05:46:05;446.97;;;146.43;;
8407;SDS011;4241;48.452;9.216;2023-05-10T05:48:32;449.47;;;146.87;;
8407;SDS011;4241;48.452;9.216;2023-05-10T05:50:59;446.77;;;145.40;;
8407;SDS011;4241;48.452;9.216;2023-05-10T05:53:26;448.77;;;147.97;;
8407;SDS011;4241;48.452;9.216;2023-05-10T05:55:53;445.80;;;144.73;;
8407;SDS011;4241;48.452;9.216;2023-05-10T05:58:21;444.83;;;143.63;;
8407;SDS011;4241;48.452;9.216;2023-05-10T06:00:48;444.50;;;143.80;;
8407;SDS011;4241;48.452;9.216;2023-05-10T06:03:16;450.27;;;148.87;;
8407;SDS011;4241;48.452;9.216;2023-05-10T06:05:45;445.33;;;144.90;;
8407;SDS011;4241;48.452;9.216;2023-05-10T06:08:12;443.10;;;142.27;;
8407;SDS011;4241;48.452;9.216;2023-05-10T06:10:39;445.90;;;145.13;;
8407;SDS011;4241;48.452;9.216;2023-05-10T06:13:06;447.13;;;145.90;;
8407;SDS011;4241;48.452;9.216;2023-05-10T06:15:33;452.33;;;150.87;;
8407;SDS011;4241;48.452;9.216;2023-05-10T06:18:00;446.87;;;146.17;;
8407;SDS011;4241;48.452;9.216;2023-05-10T06:20:28;446.70;;;145.53;;
8407;SDS011;4241;48.452;9.216;2023-05-10T06:22:56;445.23;;;144.83;;
8407;SDS011;4241;48.452;9.216;2023-05-10T06:25:23;455.83;;;154.13;;
8407;SDS011;4241;48.452;9.216;2023-05-10T06:27:50;447.33;;;145.43;;
8407;SDS011;4241;48.452;9.216;2023-05-10T06:30:22;448.10;;;146.80;;
8407;SDS011;4241;48.452;9.216;2023-05-10T06:32:53;445.07;;;143.97;;
8407;SDS011;4241;48.452;9.216;2023-05-10T06:35:20;449.67;;;148.20;;
8407;SDS011;4241;48.452;9.216;2023-05-10T06:37:48;447.80;;;145.50;;
8407;SDS011;4241;48.452;9.216;2023-05-10T06:40:15;448.17;;;145.67;;
8407;SDS011;4241;48.452;9.216;2023-05-10T06:42:43;447.20;;;144.67;;
8407;SDS011;4241;48.452;9.216;2023-05-10T06:45:11;447.43;;;147.87;;
8407;SDS011;4241;48.452;9.216;2023-05-10T06:47:38;447.57;;;146.67;;
8407;SDS011;4241;48.452;9.216;2023-05-10T06:50:05;450.07;;;147.97;;
8407;SDS011;4241;48.452;9.216;2023-05-10T06:52:32;449.53;;;148.27;;
8407;SDS011;4241;48.452;9.216;2023-05-10T06:55:01;447.07;;;145.77;;
8407;SDS011;4241;48.452;9.216;2023-05-10T06:57:28;450.73;;;148.97;;
8407;SDS011;4241;48.452;9.216;2023-05-10T06:59:55;453.07;;;152.43;;
8407;SDS011;4241;48.452;9.216;2023-05-10T07:02:22;449.03;;;148.60;;
8407;SDS011;4241;48.452;9.216;2023-05-10T07:04:49;451.80;;;151.63;;
8407;SDS011;4241;48.452;9.216;2023-05-10T07:07:17;451.07;;;150.03;;
8407;SDS011;4241;48.452;9.216;2023-05-10T07:09:43;451.67;;;152.50;;
8407;SDS011;4241;48.452;9.216;2023-05-10T07:12:12;450.17;;;150.27;;
8407;SDS011;4241;48.452;9.216;2023-05-10T07:14:39;449.77;;;149.67;;
8407;SDS011;4241;48.452;9.216;2023-05-10T07:17:05;449.23;;;148.67;;
8407;SDS011;4241;48.452;9.216;2023-05-10T07:19:33;452.17;;;151.33;;
8407;SDS011;4241;48.452;9.216;2023-05-10T07:22:00;456.13;;;156.40;;
8407;SDS011;4241;48.452;9.216;2023-05-10T07:24:27;450.67;;;148.97;;
8407;SDS011;4241;48.452;9.216;2023-05-10T07:26:54;451.50;;;151.00;;
8407;SDS011;4241;48.452;9.216;2023-05-10T07:29:23;454.80;;;155.90;;
8407;SDS011;4241;48.452;9.216;2023-05-10T07:31:49;450.63;;;151.10;;
8407;SDS011;4241;48.452;9.216;2023-05-10T07:34:16;450.93;;;150.10;;
8407;SDS011;4241;48.452;9.216;2023-05-10T07:36:43;450.77;;;150.67;;
8407;SDS011;4241;48.452;9.216;2023-05-10T07:39:10;452.20;;;153.40;;
8407;SDS011;4241;48.452;9.216;2023-05-10T07:41:37;452.40;;;152.30;;
8407;SDS011;4241;48.452;9.216;2023-05-10T07:44:04;452.03;;;154.40;;
8407;SDS011;4241;48.452;9.216;2023-05-10T07:46:32;450.73;;;151.90;;
8407;SDS011;4241;48.452;9.216;2023-05-10T07:48:59;451.20;;;150.57;;
8407;SDS011;4241;48.452;9.216;2023-05-10T07:51:26;451.37;;;150.97;;
8407;SDS011;4241;48.452;9.216;2023-05-10T07:53:53;454.13;;;154.00;;
8407;SDS011;4241;48.452;9.216;2023-05-10T07:56:21;452.57;;;151.90;;
8407;SDS011;4241;48.452;9.216;2023-05-10T07:58:50;450.73;;;151.43;;
8407;SDS011;4241;48.452;9.216;2023-05-10T08:01:17;455.20;;;155.87;;
8407;SDS011;4241;48.452;9.216;2023-05-10T08:03:46;449.80;;;150.53;;
8407;SDS011;4241;48.452;9.216;2023-05-10T08:06:13;450.90;;;152.40;;
8407;SDS011;4241;48.452;9.216;2023-05-10T08:08:40;452.10;;;152.70;;
8407;SDS011;4241;48.452;9.216;2023-05-10T08:11:07;454.63;;;155.47;;
8407;SDS011;4241;48.452;9.216;2023-05-10T08:13:34;452.10;;;152.33;;
8407;SDS011;4241;48.452;9.216;2023-05-10T08:16:00;454.33;;;155.43;;
8407;SDS011;4241;48.452;9.216;2023-05-10T08:18:27;453.87;;;154.80;;
8407;SDS011;4241;48.452;9.216;2023-05-10T08:20:55;456.43;;;158.53;;
8407;SDS011;4241;48.452;9.216;2023-05-10T08:23:22;456.30;;;158.60;;
8407;SDS011;4241;48.452;9.216;2023-05-10T08:25:49;455.97;;;159.20;;
8407;SDS011;4241;48.452;9.216;2023-05-10T08:28:16;455.20;;;158.80;;
8407;SDS011;4241;48.452;9.216;2023-05-10T08:30:42;457.70;;;161.07;;
8407;SDS011;4241;48.452;9.216;2023-05-10T08:33:09;458.97;;;163.53;;
8407;SDS011;4241;48.452;9.216;2023-05-10T08:35:37;462.40;;;166.77;;
8407;SDS011;4241;48.452;9.216;2023-05-10T08:38:05;456.90;;;160.97;;
8407;SDS011;4241;48.452;9.216;2023-05-10T08:40:32;457.97;;;163.13;;
8407;SDS011;4241;48.452;9.216;2023-05-10T08:43:02;457.07;;;161.47;;
8407;SDS011;4241;48.452;9.216;2023-05-10T08:45:32;463.30;;;168.83;;
8407;SDS011;4241;48.452;9.216;2023-05-10T08:48:01;462.30;;;167.23;;
8407;SDS011;4241;48.452;9.216;2023-05-10T08:50:31;459.70;;;164.10;;
8407;SDS011;4241;48.452;9.216;2023-05-10T08:52:59;464.13;;;170.47;;
8407;SDS011;4241;48.452;9.216;2023-05-10T08:55:31;467.70;;;174.30;;
8407;SDS011;4241;48.452;9.216;2023-05-10T08:57:58;461.03;;;168.37;;
8407;SDS011;4241;48.452;9.216;2023-05-10T09:00:26;462.27;;;170.00;;
8407;SDS011;4241;48.452;9.216;2023-05-10T09:02:54;461.13;;;168.80;;
8407;SDS011;4241;48.452;9.216;2023-05-10T09:05:21;465.70;;;173.07;;
8407;SDS011;4241;48.452;9.216;2023-05-10T09:07:47;466.93;;;174.47;;
8407;SDS011;4241;48.452;9.216;2023-05-10T09:10:14;460.70;;;167.97;;
8407;SDS011;4241;48.452;9.216;2023-05-10T09:12:43;462.40;;;169.60;;
8407;SDS011;4241;48.452;9.216;2023-05-10T09:15:10;464.37;;;170.77;;
8407;SDS011;4241;48.452;9.216;2023-05-10T09:17:39;459.73;;;165.77;;
8407;SDS011;4241;48.452;9.216;2023-05-10T09:20:07;459.67;;;166.23;;
8407;SDS011;4241;48.452;9.216;2023-05-10T09:22:34;457.10;;;163.73;;
8407;SDS011;4241;48.452;9.216;2023-05-10T09:25:05;457.17;;;164.50;;
8407;SDS011;4241;48.452;9.216;2023-05-10T09:27:32;463.03;;;169.00;;
8407;SDS011;4241;48.452;9.216;2023-05-10T09:30:01;458.77;;;164.87;;
8407;SDS011;4241;48.452;9.216;2023-05-10T09:32:35;461.67;;;169.47;;
8407;SDS011;4241;48.452;9.216;2023-05-10T09:35:07;458.67;;;165.20;;
8407;SDS011;4241;48.452;9.216;2023-05-10T09:37:35;460.10;;;168.87;;
8407;SDS011;4241;48.452;9.216;2023-05-10T09:40:04;461.07;;;168.50;;
8407;SDS011;4241;48.452;9.216;2023-05-10T09:42:32;461.47;;;169.67;;
8407;SDS011;4241;48.452;9.216;2023-05-10T09:45:01;459.03;;;166.80;;
8407;SDS011;4241;48.452;9.216;2023-05-10T09:47:29;456.83;;;165.63;;
8407;SDS011;4241;48.452;9.216;2023-05-10T09:49:58;459.30;;;164.73;;
8407;SDS011;4241;48.452;9.216;2023-05-10T09:52:29;457.70;;;164.97;;
8407;SDS011;4241;48.452;9.216;2023-05-10T09:54:56;457.63;;;164.00;;
8407;SDS011;4241;48.452;9.216;2023-05-10T09:57:23;458.30;;;165.63;;
8407;SDS011;4241;48.452;9.216;2023-05-10T09:59:50;457.97;;;164.23;;
8407;SDS011;4241;48.452;9.216;2023-05-10T10:02:20;456.50;;;161.50;;
8407;SDS011;4241;48.452;9.216;2023-05-10T10:04:54;454.23;;;160.23;;
8407;SDS011;4241;48.452;9.216;2023-05-10T10:07:22;462.83;;;169.13;;
8407;SDS011;4241;48.452;9.216;2023-05-10T10:09:50;457.53;;;162.37;;
8407;SDS011;4241;48.452;9.216;2023-05-10T10:12:17;458.73;;;161.83;;
8407;SDS011;4241;48.452;9.216;2023-05-10T10:14:46;453.83;;;157.13;;
8407;SDS011;4241;48.452;9.216;2023-05-10T10:17:14;455.07;;;156.87;;
8407;SDS011;4241;48.452;9.216;2023-05-10T10:19:42;457.33;;;158.13;;
8407;SDS011;4241;48.452;9.216;2023-05-10T10:22:11;456.77;;;159.20;;
8407;SDS011;4241;48.452;9.216;2023-05-10T10:24:38;455.47;;;158.10;;
8407;SDS011;4241;48.452;9.216;2023-05-10T10:27:11;455.93;;;157.93;;
8407;SDS011;4241;48.452;9.216;2023-05-10T10:29:47;455.80;;;158.80;;
8407;SDS011;4241;48.452;9.216;2023-05-10T10:32:24;457.03;;;158.90;;
8407;SDS011;4241;48.452;9.216;2023-05-10T10:34:57;458.13;;;158.63;;
8407;SDS011;4241;48.452;9.216;2023-05-10T10:40:23;454.73;;;156.60;;
8407;SDS011;4241;48.452;9.216;2023-05-10T10:42:51;455.57;;;158.33;;
8407;SDS011;4241;48.452;9.216;2023-05-10T10:45:19;460.53;;;163.80;;
8407;SDS011;4241;48.452;9.216;2023-05-10T10:47:47;458.93;;;165.37;;
8407;SDS011;4241;48.452;9.216;2023-05-10T10:50:16;463.47;;;167.00;;
8407;SDS011;4241;48.452;9.216;2023-05-10T10:52:43;458.33;;;164.67;;
8407;SDS011;4241;48.452;9.216;2023-05-10T10:55:10;460.77;;;167.30;;
8407;SDS011;4241;48.452;9.216;2023-05-10T10:57:42;456.93;;;163.63;;
8407;SDS011;4241;48.452;9.216;2023-05-10T11:00:17;459.20;;;166.80;;
8407;SDS011;4241;48.452;9.216;2023-05-10T11:02:49;459.03;;;167.57;;
8407;SDS011;4241;48.452;9.216;2023-05-10T11:05:26;462.60;;;173.10;;
8407;SDS011;4241;48.452;9.216;2023-05-10T11:08:07;462.63;;;174.00;;
8407;SDS011;4241;48.452;9.216;2023-05-10T11:10:39;462.70;;;176.07;;
8407;SDS011;4241;48.452;9.216;2023-05-10T11:13:07;465.20;;;180.07;;
8407;SDS011;4241;48.452;9.216;2023-05-10T11:15:36;471.40;;;189.00;;
8407;SDS011;4241;48.452;9.216;2023-05-10T11:18:17;466.20;;;183.57;;
8407;SDS011;4241;48.452;9.216;2023-05-10T11:20:50;465.93;;;182.30;;
8407;SDS011;4241;48.452;9.216;2023-05-10T11:23:18;465.57;;;183.13;;
8407;SDS011;4241;48.452;9.216;2023-05-10T11:25:46;467.97;;;184.27;;
8407;SDS011;4241;48.452;9.216;2023-05-10T11:28:16;467.83;;;184.90;;
8407;SDS011;4241;48.452;9.216;2023-05-10T11:30:43;469.27;;;189.23;;
8407;SDS011;4241;48.452;9.216;2023-05-10T11:33:14;463.13;;;180.23;;
8407;SDS011;4241;48.452;9.216;2023-05-10T11:35:42;466.57;;;182.27;;
8407;SDS011;4241;48.452;9.216;2023-05-10T11:38:11;464.63;;;178.90;;
8407;SDS011;4241;48.452;9.216;2023-05-10T11:40:39;461.70;;;171.67;;
8407;SDS011;4241;48.452;9.216;2023-05-10T11:43:08;462.90;;;169.90;;
8407;SDS011;4241;48.452;9.216;2023-05-10T11:45:35;463.40;;;168.10;;
8407;SDS011;4241;48.452;9.216;2023-05-10T11:48:02;455.07;;;159.23;;
8407;SDS011;4241;48.452;9.216;2023-05-10T11:50:29;455.70;;;160.57;;
8407;SDS011;4241;48.452;9.216;2023-05-10T11:52:57;455.57;;;159.23;;
8407;SDS011;4241;48.452;9.216;2023-05-10T11:55:26;462.00;;;165.90;;
8407;SDS011;4241;48.452;9.216;2023-05-10T11:57:55;452.20;;;156.13;;
8407;SDS011;4241;48.452;9.216;2023-05-10T12:00:22;457.23;;;160.23;;
8407;SDS011;4241;48.452;9.216;2023-05-10T12:02:49;455.77;;;157.93;;
8407;SDS011;4241;48.452;9.216;2023-05-10T12:05:16;454.93;;;157.93;;
8407;SDS011;4241;48.452;9.216;2023-05-10T12:07:43;455.33;;;158.37;;
8407;SDS011;4241;48.452;9.216;2023-05-10T12:10:10;458.30;;;160.73;;
8407;SDS011;4241;48.452;9.216;2023-05-10T12:12:41;455.43;;;158.10;;
8407;SDS011;4241;48.452;9.216;2023-05-10T12:15:12;456.90;;;159.40;;
8407;SDS011;4241;48.452;9.216;2023-05-10T12:17:44;454.07;;;157.67;;
8407;SDS011;4241;48.452;9.216;2023-05-10T12:20:19;454.33;;;158.13;;
8407;SDS011;4241;48.452;9.216;2023-05-10T12:22:47;456.97;;;161.83;;
8407;SDS011;4241;48.452;9.216;2023-05-10T12:25:16;459.30;;;164.03;;
8407;SDS011;4241;48.452;9.216;2023-05-10T12:27:49;459.60;;;166.10;;
8407;SDS011;4241;48.452;9.216;2023-05-10T12:30:21;454.07;;;159.57;;
8407;SDS011;4241;48.452;9.216;2023-05-10T12:32:48;461.90;;;168.53;;
8407;SDS011;4241;48.452;9.216;2023-05-10T12:35:16;459.10;;;166.97;;
8407;SDS011;4241;48.452;9.216;2023-05-10T12:37:45;455.07;;;160.90;;
8407;SDS011;4241;48.452;9.216;2023-05-10T12:40:12;457.33;;;162.83;;
8407;SDS011;4241;48.452;9.216;2023-05-10T12:42:39;456.47;;;161.93;;
8407;SDS011;4241;48.452;9.216;2023-05-10T12:45:08;457.73;;;162.63;;
8407;SDS011;4241;48.452;9.216;2023-05-10T12:47:35;458.47;;;163.87;;
8407;SDS011;4241;48.452;9.216;2023-05-10T12:50:03;456.17;;;161.30;;
8407;SDS011;4241;48.452;9.216;2023-05-10T12:52:30;457.40;;;162.93;;
8407;SDS011;4241;48.452;9.216;2023-05-10T12:54:58;459.67;;;166.57;;
8407;SDS011;4241;48.452;9.216;2023-05-10T12:57:25;459.30;;;169.00;;
8407;SDS011;4241;48.452;9.216;2023-05-10T12:59:52;460.27;;;168.00;;
8407;SDS011;4241;48.452;9.216;2023-05-10T13:02:21;461.97;;;171.60;;
8407;SDS011;4241;48.452;9.216;2023-05-10T13:04:48;458.37;;;168.03;;
8407;SDS011;4241;48.452;9.216;2023-05-10T13:07:15;460.20;;;170.63;;
8407;SDS011;4241;48.452;9.216;2023-05-10T13:09:42;463.57;;;174.37;;
8407;SDS011;4241;48.452;9.216;2023-05-10T13:12:09;462.13;;;172.60;;
8407;SDS011;4241;48.452;9.216;2023-05-10T13:14:36;461.20;;;172.20;;
8407;SDS011;4241;48.452;9.216;2023-05-10T13:17:05;461.27;;;173.37;;
8407;SDS011;4241;48.452;9.216;2023-05-10T13:19:34;461.53;;;174.30;;
8407;SDS011;4241;48.452;9.216;2023-05-10T13:22:00;459.33;;;169.73;;
8407;SDS011;4241;48.452;9.216;2023-05-10T13:24:27;461.37;;;172.80;;
8407;SDS011;4241;48.452;9.216;2023-05-10T13:26:54;461.73;;;173.17;;
8407;SDS011;4241;48.452;9.216;2023-05-10T13:29:21;465.73;;;176.63;;
8407;SDS011;4241;48.452;9.216;2023-05-10T13:31:48;461.50;;;171.57;;
8407;SDS011;4241;48.452;9.216;2023-05-10T13:34:15;463.03;;;176.70;;
8407;SDS011;4241;48.452;9.216;2023-05-10T13:36:43;463.60;;;176.73;;
8407;SDS011;4241;48.452;9.216;2023-05-10T13:39:10;465.40;;;178.00;;
8407;SDS011;4241;48.452;9.216;2023-05-10T13:41:37;464.03;;;178.80;;
8407;SDS011;4241;48.452;9.216;2023-05-10T13:44:04;464.03;;;177.37;;
8407;SDS011;4241;48.452;9.216;2023-05-10T13:46:31;462.40;;;177.23;;
8407;SDS011;4241;48.452;9.216;2023-05-10T13:48:58;462.87;;;176.83;;
8407;SDS011;4241;48.452;9.216;2023-05-10T13:51:25;461.83;;;174.10;;
8407;SDS011;4241;48.452;9.216;2023-05-10T13:53:53;461.97;;;173.93;;
8407;SDS011;4241;48.452;9.216;2023-05-10T13:56:20;461.43;;;173.20;;
8407;SDS011;4241;48.452;9.216;2023-05-10T13:58:47;462.07;;;173.30;;
8407;SDS011;4241;48.452;9.216;2023-05-10T14:01:14;464.43;;;175.07;;
8407;SDS011;4241;48.452;9.216;2023-05-10T14:03:41;462.50;;;174.97;;
8407;SDS011;4241;48.452;9.216;2023-05-10T14:06:09;463.00;;;175.47;;
8407;SDS011;4241;48.452;9.216;2023-05-10T14:08:36;464.83;;;177.73;;
8407;SDS011;4241;48.452;9.216;2023-05-10T14:11:04;461.57;;;173.30;;
8407;SDS011;4241;48.452;9.216;2023-05-10T14:13:31;463.97;;;177.60;;
8407;SDS011;4241;48.452;9.216;2023-05-10T14:15:58;464.43;;;178.57;;
8407;SDS011;4241;48.452;9.216;2023-05-10T14:18:25;464.27;;;177.77;;
8407;SDS011;4241;48.452;9.216;2023-05-10T14:20:52;464.23;;;178.07;;
8407;SDS011;4241;48.452;9.216;2023-05-10T14:23:21;462.77;;;177.67;;
8407;SDS011;4241;48.452;9.216;2023-05-10T14:25:49;463.30;;;178.40;;
8407;SDS011;4241;48.452;9.216;2023-05-10T14:28:17;464.57;;;180.63;;
8407;SDS011;4241;48.452;9.216;2023-05-10T14:30:45;464.13;;;180.87;;